Chippewa Valley Regional Airport


Codes: KEAU/EAU
Name: Chippewa Valley Regional Airport
City: Eau Claire
Country: United States
Elevation: 913 ft.
Wikipedia:

Photos at Chippewa Valley Regional Airport


   Photos courtesy of SpottingLog. You can add your own sightings and photos by signing up for a free trial today.



No photos found.

Weather at Chippewa Valley Regional Airport


Time (UTC)DescriptionTempratureWindCloud coverageVisibilityPressureHumidity
21-Feb-2024 03:00Clear Sky3°C7 mph, SW0%10000m1015hPa77%
21-Feb-2024 06:00Scattered Clouds2°C4 mph, SW28%10000m1015hPa78%
21-Feb-2024 09:00Scattered Clouds2°C2 mph, N28%10000m1014hPa75%
21-Feb-2024 12:00Few Clouds0°C4 mph, N23%10000m1014hPa74%
21-Feb-2024 15:00Clear Sky3°C2 mph, NW0%10000m1014hPa63%
21-Feb-2024 18:00Scattered Clouds6°C2 mph, NW41%10000m1012hPa45%
21-Feb-2024 21:00Overcast Clouds7°C4 mph, W100%10000m1011hPa46%
22-Feb-2024 00:00Overcast Clouds4°C2 mph, W100%10000m1010hPa59%
22-Feb-2024 03:00Overcast Clouds3°C0 mph, S100%10000m1010hPa61%
22-Feb-2024 06:00Overcast Clouds2°C0 mph, S98%10000m1009hPa64%
22-Feb-2024 09:00Broken Clouds2°C2 mph, W83%10000m1008hPa66%
22-Feb-2024 12:00Overcast Clouds1°C4 mph, NW87%10000m1008hPa74%
22-Feb-2024 15:00Clear Sky3°C7 mph, NW3%10000m1008hPa73%
22-Feb-2024 18:00Clear Sky8°C11 mph, NW3%10000m1007hPa61%
22-Feb-2024 21:00Clear Sky8°C13 mph, NW6%10000m1006hPa55%
23-Feb-2024 00:00Clear Sky4°C11 mph, W6%10000m1007hPa68%
23-Feb-2024 03:00Clear Sky3°C11 mph, W10%10000m1008hPa72%
23-Feb-2024 06:00Clear Sky1°C9 mph, NW8%10000m1009hPa77%
23-Feb-2024 09:00Clear Sky-1°C7 mph, NW8%10000m1009hPa82%
23-Feb-2024 12:00Few Clouds-2°C7 mph, NW15%10000m1010hPa86%
23-Feb-2024 15:00Broken Clouds-0°C9 mph, N60%10000m1011hPa64%
23-Feb-2024 18:00Broken Clouds1°C9 mph, N79%10000m1012hPa48%
23-Feb-2024 21:00Overcast Clouds1°C9 mph, N98%10000m1012hPa39%
24-Feb-2024 00:00Overcast Clouds-1°C7 mph, N96%10000m1014hPa49%
24-Feb-2024 03:00Few Clouds-4°C9 mph, NE11%10000m1017hPa45%
24-Feb-2024 06:00Clear Sky-5°C4 mph, NE5%10000m1018hPa40%
24-Feb-2024 09:00Clear Sky-5°C0 mph, E2%10000m1018hPa36%
24-Feb-2024 12:00Clear Sky-6°C4 mph, S2%10000m1018hPa38%
24-Feb-2024 15:00Clear Sky-3°C9 mph, SW6%10000m1017hPa36%
24-Feb-2024 18:00Clear Sky2°C13 mph, SW7%10000m1014hPa33%
24-Feb-2024 21:00Scattered Clouds5°C16 mph, SW39%10000m1009hPa37%
25-Feb-2024 00:00Scattered Clouds3°C11 mph, SW27%10000m1007hPa57%
25-Feb-2024 03:00Clear Sky2°C11 mph, SW10%10000m1005hPa69%
25-Feb-2024 06:00Scattered Clouds2°C9 mph, SW41%10000m1003hPa81%
25-Feb-2024 09:00Overcast Clouds1°C7 mph, W100%10000m1002hPa91%
25-Feb-2024 12:00Broken Clouds-0°C7 mph, NW76%10000m1004hPa86%
25-Feb-2024 15:00Overcast Clouds2°C9 mph, NW100%10000m1006hPa55%
25-Feb-2024 18:00Overcast Clouds6°C11 mph, NW98%10000m1007hPa33%
25-Feb-2024 21:00Scattered Clouds7°C13 mph, NW45%10000m1007hPa32%
26-Feb-2024 00:00Scattered Clouds3°C7 mph, W25%10000m1010hPa49%